createdAt,value
2022-08-29T00:08:31.384Z,3489.54028
2022-08-29T00:23:33.621Z,2796.47876
2022-08-29T00:38:35.868Z,2174.17749
2022-08-29T00:53:38.109Z,1623.60547
2022-08-29T01:08:40.341Z,1592.5874
2022-08-29T01:23:42.572Z,593.22186
2022-08-29T01:38:44.807Z,490.47427
2022-08-29T01:53:47.022Z,391.60394
2022-08-29T02:08:49.196Z,296.61093
2022-08-29T02:23:51.612Z,179.32359
2022-08-29T02:38:53.840Z,69.7908
2022-08-29T02:53:56.148Z,10.66248
2022-08-29T03:08:58.404Z,0.96932
2022-08-29T03:24:00.830Z,0
2022-08-29T03:39:03.039Z,0
2022-08-29T03:54:05.253Z,0
2022-08-29T04:09:07.724Z,0
2022-08-29T04:24:09.977Z,0
2022-08-29T04:39:12.221Z,0
2022-08-29T04:54:15.692Z,0
2022-08-29T05:09:18.145Z,0
2022-08-29T05:24:20.296Z,0
2022-08-29T05:39:22.485Z,0
2022-08-29T05:54:24.688Z,0
2022-08-29T06:09:32.653Z,0
2022-08-29T06:24:34.818Z,0
2022-08-29T06:39:37.047Z,0
2022-08-29T06:54:39.261Z,0
2022-08-29T07:09:41.708Z,0
2022-08-29T07:24:44.038Z,0
2022-08-29T07:39:46.261Z,0
2022-08-29T07:54:48.550Z,0
2022-08-29T08:09:50.773Z,0
2022-08-29T08:24:52.972Z,0
2022-08-29T08:39:55.373Z,0
2022-08-29T08:54:57.630Z,0
2022-08-29T09:09:59.836Z,0
2022-08-29T09:25:02.030Z,0
2022-08-29T09:40:04.362Z,0
2022-08-29T09:55:06.591Z,0
2022-08-29T10:10:08.795Z,0
2022-08-29T10:25:11.190Z,0
2022-08-29T10:40:17.563Z,0
2022-08-29T10:55:20.173Z,0
2022-08-29T11:10:22.334Z,0
2022-08-29T11:25:24.674Z,0
2022-08-29T11:40:48.405Z,0
2022-08-29T11:55:51.254Z,0
2022-08-29T12:10:53.471Z,0
2022-08-29T12:26:15.819Z,0
2022-08-29T12:41:24.060Z,2.90795
2022-08-29T12:56:26.289Z,25.20223
2022-08-29T13:11:28.541Z,73.66807
2022-08-29T13:26:30.812Z,143.45888
2022-08-29T13:41:33.033Z,296.61093
2022-08-29T13:56:35.296Z,391.60394
2022-08-29T14:11:37.477Z,1229.09363
2022-08-29T14:26:39.640Z,23219.01367
2022-08-29T14:41:41.931Z,1338.62634
2022-08-29T14:56:48.845Z,2495.99048
2022-08-29T15:11:52.170Z,26818.08594
2022-08-29T15:26:54.479Z,32152.23633
2022-08-29T15:41:56.693Z,4738.98926
2022-08-29T15:56:59.010Z,4027.51099
2022-08-29T16:12:01.304Z,4247.5459
2022-08-29T16:27:03.526Z,5459.19189
2022-08-29T16:42:05.714Z,5101.51367
2022-08-29T16:57:07.924Z,4691.49316
2022-08-29T17:12:10.097Z,4535.43311
2022-08-29T17:27:12.311Z,4546.09521
2022-08-29T17:42:14.776Z,4902.8042
2022-08-29T17:57:17.117Z,5594.896
2022-08-29T18:12:19.323Z,6490.54492
2022-08-29T18:27:21.542Z,6907.35107
2022-08-29T18:42:39.303Z,6680.53076
2022-08-29T18:57:43.003Z,6993.62012
2022-08-29T19:12:46.929Z,3394.54712
2022-08-29T19:27:49.209Z,4182.60156
2022-08-29T19:42:51.418Z,4959.99365
2022-08-29T19:57:53.629Z,6164.85449
2022-08-29T20:12:55.830Z,7044.02441
2022-08-29T20:27:58.195Z,5943.8501
2022-08-29T20:43:00.393Z,5718.96875
2022-08-29T20:58:02.684Z,5536.7373
2022-08-29T21:13:05.135Z,5101.51367
2022-08-29T21:28:07.349Z,5597.8042
2022-08-29T21:43:09.934Z,6697.97852
2022-08-29T21:58:15.486Z,8287.6582
2022-08-29T22:13:17.971Z,10246.64746
2022-08-29T22:28:20.407Z,11918.71875
2022-08-29T22:43:22.696Z,13148.78125
2022-08-29T22:58:24.891Z,13994.02539
2022-08-29T23:13:27.083Z,14420.52441
2022-08-29T23:28:33.419Z,15138.78809
2022-08-29T23:43:36.754Z,16084.8418
2022-08-29T23:58:39.371Z,16542.35938
